Time;durP1;ratioP1;P1;durP2;ratioP2;P2;SDS_P1;SDS_P2;PMS_P1;PMS_P2;Temp;Humidity;BMP_temperature;BMP_pressure;BME280_temperature;BME280_humidity;BME280_pressure;Samples;Min_cycle;Max_cycle;Signal;HPM_P1;HPM_P2
2023/01/30 00:01:43;;;;;;;20.70;5.35;;;8.80;99.90;;;;;;5069723;28;20056;-69
2023/01/30 00:04:13;;;;;;;17.33;4.13;;;8.80;99.90;;;;;;5058653;28;20029;-69
2023/01/30 00:06:40;;;;;;;15.65;3.65;;;8.90;99.90;;;;;;5067122;28;20029;-67
2023/01/30 00:09:06;;;;;;;19.40;4.13;;;8.90;99.90;;;;;;5067236;28;20039;-69
2023/01/30 00:11:32;;;;;;;12.13;2.80;;;8.90;99.90;;;;;;5068319;28;20032;-70
2023/01/30 00:14:00;;;;;;;16.83;4.13;;;8.90;99.90;;;;;;5070964;28;20429;-68
2023/01/30 00:16:26;;;;;;;11.40;3.40;;;9.00;99.90;;;;;;5069961;28;20085;-69
2023/01/30 00:18:51;;;;;;;13.65;3.20;;;9.00;99.90;;;;;;5068549;28;20045;-68
2023/01/30 00:21:17;;;;;;;19.73;3.55;;;9.00;99.90;;;;;;5071494;28;20505;-69
2023/01/30 00:23:43;;;;;;;18.00;3.38;;;9.00;99.90;;;;;;5073315;28;20040;-69
2023/01/30 00:26:10;;;;;;;15.90;3.05;;;9.00;99.90;;;;;;5072663;28;20032;-68
2023/01/30 00:28:36;;;;;;;14.20;3.50;;;9.10;99.90;;;;;;5056071;28;20031;-69
2023/01/30 00:31:01;;;;;;;26.25;4.70;;;9.10;99.90;;;;;;5074094;28;20029;-69
2023/01/30 00:33:28;;;;;;;15.68;3.60;;;9.10;99.90;;;;;;5067475;28;20032;-69
2023/01/30 00:35:55;;;;;;;16.08;3.50;;;9.20;99.90;;;;;;5061947;28;20037;-69
2023/01/30 00:38:22;;;;;;;18.13;3.20;;;9.20;99.90;;;;;;5069066;28;20435;-70
2023/01/30 00:40:47;;;;;;;14.35;2.88;;;9.20;99.90;;;;;;5072470;28;20032;-69
2023/01/30 00:48:46;;;;;;;18.85;3.35;;;9.20;99.90;;;;;;5064110;28;20139;-69
2023/01/30 00:51:12;;;;;;;19.77;3.20;;;9.20;99.90;;;;;;5071022;28;20032;-69
2023/01/30 00:53:37;;;;;;;19.60;3.83;;;9.10;99.90;;;;;;5059328;28;20024;-69
2023/01/30 00:56:03;;;;;;;10.55;3.35;;;9.10;99.90;;;;;;5067542;28;20055;-69
2023/01/30 00:58:29;;;;;;;20.88;5.32;;;9.10;99.90;;;;;;5072616;28;20112;-68
2023/01/30 01:00:55;;;;;;;18.50;4.05;;;9.00;99.90;;;;;;5066548;28;20025;-68
2023/01/30 01:03:21;;;;;;;19.80;4.22;;;9.10;99.90;;;;;;5071110;28;20133;-70
2023/01/30 01:05:46;;;;;;;17.15;4.15;;;9.00;99.90;;;;;;5068780;28;20439;-68
2023/01/30 01:08:13;;;;;;;16.35;3.60;;;9.00;99.90;;;;;;5070553;28;20033;-68
2023/01/30 01:10:38;;;;;;;19.02;4.60;;;8.90;99.90;;;;;;5069114;28;20020;-70
2023/01/30 01:13:05;;;;;;;16.92;3.70;;;8.90;99.90;;;;;;5067920;28;20475;-69
2023/01/30 01:15:31;;;;;;;17.63;3.42;;;9.00;99.90;;;;;;5061145;28;20020;-69
2023/01/30 01:17:57;;;;;;;16.80;4.00;;;9.00;99.90;;;;;;5059931;28;20080;-68
2023/01/30 01:20:23;;;;;;;16.15;3.60;;;9.00;99.90;;;;;;5069203;28;20045;-68
2023/01/30 01:22:52;;;;;;;24.63;4.22;;;9.00;99.90;;;;;;5071647;28;20107;-70
2023/01/30 01:25:18;;;;;;;15.77;3.70;;;9.10;99.90;;;;;;5065060;28;20491;-68
2023/01/30 01:27:45;;;;;;;14.27;3.15;;;9.10;99.90;;;;;;5057613;28;20017;-68
2023/01/30 01:30:11;;;;;;;17.00;3.95;;;9.10;99.90;;;;;;5070445;28;20028;-69
2023/01/30 01:32:37;;;;;;;20.23;4.63;;;9.10;99.90;;;;;;5063813;28;20098;-69
2023/01/30 01:35:04;;;;;;;16.30;3.78;;;9.00;99.90;;;;;;5058617;28;20416;-68
2023/01/30 01:37:30;;;;;;;26.67;3.92;;;9.00;99.90;;;;;;5068912;28;20075;-70
2023/01/30 01:42:40;;;;;;;19.23;3.50;;;9.00;99.90;;;;;;5064718;28;20100;-69
2023/01/30 01:45:11;;;;;;;16.75;3.42;;;8.90;99.90;;;;;;5059019;28;20021;-69
2023/01/30 01:47:41;;;;;;;22.53;3.50;;;8.90;99.90;;;;;;5068841;28;20059;-70
2023/01/30 01:50:14;;;;;;;20.83;4.50;;;8.90;99.90;;;;;;5063486;28;20441;-71
2023/01/30 01:52:41;;;;;;;14.70;3.35;;;8.80;99.90;;;;;;5064155;28;20100;-70
2023/01/30 01:55:07;;;;;;;17.58;3.55;;;8.80;99.90;;;;;;5068876;28;20112;-70
2023/01/30 01:57:41;;;;;;;15.57;3.28;;;8.80;99.90;;;;;;5059599;28;20450;-70
2023/01/30 02:00:19;;;;;;;15.18;3.15;;;8.80;99.90;;;;;;5066877;28;20028;-69
2023/01/30 02:02:53;;;;;;;15.95;3.55;;;8.80;99.90;;;;;;5067177;28;20029;-69
2023/01/30 02:05:19;;;;;;;18.08;2.90;;;8.80;99.90;;;;;;5066127;28;20024;-69
2023/01/30 02:07:59;;;;;;;18.50;3.05;;;8.80;99.90;;;;;;5088746;28;20036;-68
2023/01/30 02:10:44;;;;;;;23.88;3.88;;;8.80;99.90;;;;;;5074219;28;20063;-69
2023/01/30 02:13:09;;;;;;;18.52;4.70;;;8.80;99.90;;;;;;5071077;28;20035;-68
2023/01/30 02:15:35;;;;;;;19.55;3.10;;;8.80;99.90;;;;;;5072757;28;20025;-69
2023/01/30 02:18:01;;;;;;;17.65;3.35;;;8.80;99.90;;;;;;5065396;28;20135;-69
2023/01/30 02:20:37;;;;;;;17.10;3.50;;;8.80;99.90;;;;;;5069693;28;20055;-67
2023/01/30 02:23:21;;;;;;;16.13;3.35;;;8.90;99.90;;;;;;5072188;28;20091;-69
2023/01/30 02:26:04;;;;;;;19.40;3.10;;;8.90;99.90;;;;;;5078383;28;20032;-69
2023/01/30 02:29:12;;;;;;;20.30;3.92;;;8.90;99.90;;;;;;5072439;28;20031;-69
2023/01/30 02:32:07;;;;;;;25.42;3.65;;;9.00;99.90;;;;;;5064635;28;20032;-70
2023/01/30 02:34:37;;;;;;;19.63;3.08;;;8.90;99.90;;;;;;5064905;28;20387;-69
2023/01/30 02:37:21;;;;;;;22.30;4.57;;;9.00;99.90;;;;;;5063814;28;20517;-70
2023/01/30 02:40:13;;;;;;;16.98;3.85;;;8.90;99.90;;;;;;5063901;28;20032;-69
2023/01/30 02:43:08;;;;;;;15.82;3.30;;;8.90;99.90;;;;;;5070486;28;20033;-70
2023/01/30 02:46:03;;;;;;;20.70;3.22;;;9.00;99.90;;;;;;5065439;28;20121;-69
2023/01/30 02:48:54;;;;;;;22.17;3.90;;;8.90;99.90;;;;;;5061126;28;20033;-69
2023/01/30 02:51:25;;;;;;;25.23;3.13;;;9.00;99.90;;;;;;5068422;28;20443;-68
2023/01/30 02:53:50;;;;;;;22.00;4.13;;;9.00;99.90;;;;;;5065552;28;20120;-70
2023/01/30 02:56:16;;;;;;;18.13;3.38;;;9.00;99.90;;;;;;5061228;28;20432;-69
2023/01/30 02:58:48;;;;;;;18.70;3.70;;;9.00;99.90;;;;;;5062062;28;20041;-70
2023/01/30 03:01:41;;;;;;;18.70;3.80;;;9.00;99.90;;;;;;5074148;28;20079;-69
2023/01/30 03:04:44;;;;;;;21.33;4.10;;;9.00;99.90;;;;;;5062817;28;20032;-68
2023/01/30 03:07:26;;;;;;;21.65;4.00;;;9.10;99.90;;;;;;5067630;28;20062;-68
2023/01/30 03:10:17;;;;;;;18.17;3.13;;;9.10;99.90;;;;;;5061797;28;20040;-69
2023/01/30 03:12:46;;;;;;;14.48;2.65;;;9.10;99.90;;;;;;5065764;28;20236;-70
2023/01/30 03:15:51;;;;;;;17.85;3.08;;;9.10;99.90;;;;;;5064390;28;20024;-69
2023/01/30 03:18:18;;;;;;;13.80;2.95;;;9.20;99.90;;;;;;5066318;28;20131;-70
2023/01/30 03:20:45;;;;;;;25.73;4.00;;;9.20;99.90;;;;;;5056921;28;20040;-70
2023/01/30 03:23:11;;;;;;;18.90;3.20;;;9.10;99.90;;;;;;5070189;28;20044;-68
2023/01/30 03:25:39;;;;;;;15.07;3.90;;;9.20;99.90;;;;;;5063575;28;20033;-69
2023/01/30 03:28:06;;;;;;;17.38;3.38;;;9.20;99.90;;;;;;5057081;28;20051;-70
2023/01/30 03:30:32;;;;;;;17.45;3.60;;;9.10;99.90;;;;;;5068157;28;20420;-69
2023/01/30 03:32:58;;;;;;;23.83;3.40;;;9.10;99.90;;;;;;5055726;28;20060;-68
2023/01/30 03:35:23;;;;;;;24.80;4.22;;;9.10;99.90;;;;;;5061079;28;20056;-69
2023/01/30 03:37:49;;;;;;;21.00;3.70;;;9.20;99.90;;;;;;5065253;28;20040;-70
2023/01/30 03:40:16;;;;;;;22.83;3.30;;;9.10;99.90;;;;;;5064631;28;20108;-69
2023/01/30 03:42:42;;;;;;;17.80;3.20;;;9.20;99.90;;;;;;5064800;28;20095;-69
2023/01/30 03:45:09;;;;;;;19.58;3.15;;;9.20;99.90;;;;;;5073737;28;20489;-69
2023/01/30 03:47:34;;;;;;;18.77;3.33;;;9.20;99.90;;;;;;5060137;28;20028;-69
2023/01/30 03:50:00;;;;;;;19.05;3.33;;;9.20;99.90;;;;;;5067693;28;20443;-69
2023/01/30 03:52:26;;;;;;;20.88;3.25;;;9.20;99.90;;;;;;5074048;28;20028;-69
2023/01/30 03:54:51;;;;;;;17.40;3.70;;;9.20;99.90;;;;;;5066224;28;20079;-69
2023/01/30 03:57:18;;;;;;;23.08;5.97;;;9.20;99.90;;;;;;5059533;28;20041;-69
2023/01/30 03:59:43;;;;;;;19.00;3.65;;;9.20;99.90;;;;;;5069519;28;20078;-70
2023/01/30 04:02:10;;;;;;;16.30;3.50;;;9.20;99.90;;;;;;5066537;28;20388;-69
2023/01/30 04:04:35;;;;;;;15.15;3.42;;;9.20;99.90;;;;;;5070738;28;20016;-69
2023/01/30 04:07:01;;;;;;;24.42;3.67;;;9.20;99.90;;;;;;5065105;28;20055;-70
2023/01/30 04:09:27;;;;;;;16.85;3.63;;;9.20;99.90;;;;;;5072580;28;20103;-69
2023/01/30 04:11:52;;;;;;;14.10;3.10;;;9.20;99.90;;;;;;5079085;28;20063;-70
2023/01/30 04:14:18;;;;;;;17.33;3.15;;;9.20;99.90;;;;;;5066488;28;20060;-69
2023/01/30 04:16:44;;;;;;;15.23;2.53;;;9.20;99.90;;;;;;5074218;28;20036;-69
2023/01/30 04:19:09;;;;;;;18.75;3.08;;;9.20;99.90;;;;;;5070019;28;20044;-68
2023/01/30 04:21:35;;;;;;;17.25;2.95;;;9.20;99.90;;;;;;5070790;28;20036;-70
2023/01/30 04:24:01;;;;;;;14.70;3.08;;;9.20;99.90;;;;;;5072852;28;20100;-70
2023/01/30 04:26:26;;;;;;;12.20;3.00;;;9.20;99.90;;;;;;5060103;28;20016;-70
2023/01/30 04:28:52;;;;;;;18.30;3.10;;;9.30;99.90;;;;;;5074608;28;20021;-70
2023/01/30 04:31:17;;;;;;;18.95;3.83;;;9.30;99.90;;;;;;5073521;28;20115;-68
2023/01/30 04:33:43;;;;;;;10.45;3.28;;;9.30;99.90;;;;;;5072543;28;20393;-69
2023/01/30 04:36:09;;;;;;;21.50;3.38;;;9.30;99.90;;;;;;5074071;28;20028;-68
2023/01/30 04:38:35;;;;;;;15.95;3.17;;;9.30;99.90;;;;;;5074098;28;20464;-69
2023/01/30 04:41:01;;;;;;;23.30;3.40;;;9.20;99.90;;;;;;5073139;28;20035;-69
2023/01/30 04:43:28;;;;;;;21.42;4.03;;;9.20;99.90;;;;;;5074109;28;20033;-70
2023/01/30 04:45:54;;;;;;;24.25;4.28;;;9.20;99.90;;;;;;5073532;28;20126;-68
2023/01/30 04:48:21;;;;;;;20.05;3.67;;;9.10;99.90;;;;;;5073398;28;20055;-70
2023/01/30 04:50:49;;;;;;;27.00;3.58;;;9.10;99.90;;;;;;5073095;28;20517;-68
2023/01/30 04:53:15;;;;;;;21.25;4.28;;;9.10;99.90;;;;;;5073475;28;20380;-69
2023/01/30 04:55:41;;;;;;;19.25;3.28;;;9.00;99.90;;;;;;5058739;28;20040;-69
2023/01/30 04:58:06;;;;;;;18.60;3.35;;;9.00;99.90;;;;;;5071687;28;20040;-71
2023/01/30 05:00:32;;;;;;;26.52;3.45;;;8.90;99.90;;;;;;5072397;28;20472;-68
2023/01/30 05:02:58;;;;;;;21.27;3.72;;;8.80;99.90;;;;;;5073241;28;20547;-69
2023/01/30 05:05:24;;;;;;;26.55;4.20;;;8.70;99.90;;;;;;5077498;28;20036;-70
2023/01/30 05:07:50;;;;;;;17.67;3.83;;;8.60;99.90;;;;;;5065902;28;20024;-70
2023/01/30 05:10:16;;;;;;;15.52;2.92;;;8.60;99.90;;;;;;5077106;28;20369;-69
2023/01/30 05:12:41;;;;;;;24.75;3.33;;;8.50;99.90;;;;;;5073784;28;20043;-69
2023/01/30 05:15:08;;;;;;;17.00;2.65;;;8.40;99.90;;;;;;5073494;28;20033;-70
2023/01/30 05:17:33;;;;;;;19.70;3.30;;;8.40;99.90;;;;;;5064987;28;20205;-70
2023/01/30 05:19:59;;;;;;;20.30;3.45;;;8.30;99.90;;;;;;5071227;28;20412;-69
2023/01/30 05:22:24;;;;;;;9.88;2.28;;;8.30;99.90;;;;;;5068857;28;20025;-69
2023/01/30 05:24:50;;;;;;;17.15;2.75;;;8.20;99.90;;;;;;5063571;28;20142;-68
2023/01/30 05:27:16;;;;;;;22.95;3.58;;;8.20;99.90;;;;;;5085906;28;20440;-69
2023/01/30 05:29:42;;;;;;;16.95;3.13;;;8.20;99.90;;;;;;5076864;28;20032;-68
2023/01/30 05:32:12;;;;;;;17.45;3.05;;;8.20;99.90;;;;;;5071450;28;20036;-70
2023/01/30 05:34:38;;;;;;;26.92;3.55;;;8.10;99.90;;;;;;5065397;28;20404;-69
2023/01/30 05:37:03;;;;;;;13.80;2.90;;;8.10;99.90;;;;;;5059810;28;20083;-70
2023/01/30 05:39:29;;;;;;;22.88;3.35;;;8.00;99.90;;;;;;5062945;28;20037;-69
2023/01/30 05:41:55;;;;;;;21.00;3.17;;;8.10;99.90;;;;;;5074485;28;20029;-70
2023/01/30 05:44:20;;;;;;;21.05;3.03;;;8.00;99.90;;;;;;5067025;28;20025;-70
2023/01/30 05:46:46;;;;;;;19.42;3.40;;;8.00;99.90;;;;;;5053884;28;20476;-68
2023/01/30 05:49:11;;;;;;;28.95;4.93;;;7.90;99.90;;;;;;5056758;28;20465;-69
2023/01/30 05:51:37;;;;;;;24.13;3.85;;;7.90;99.90;;;;;;5052734;28;20033;-70
2023/01/30 05:54:02;;;;;;;28.00;4.30;;;7.90;99.90;;;;;;5055208;28;20029;-71
2023/01/30 05:56:32;;;;;;;29.00;4.30;;;7.90;99.90;;;;;;5058241;28;20039;-70
2023/01/30 05:58:58;;;;;;;27.67;4.35;;;7.80;99.90;;;;;;5070113;28;21169;-69
2023/01/30 06:01:24;;;;;;;17.52;3.85;;;7.80;99.90;;;;;;5070528;28;20029;-68
2023/01/30 06:03:50;;;;;;;27.27;4.60;;;7.80;99.90;;;;;;5053957;28;20033;-70
2023/01/30 06:06:15;;;;;;;30.05;3.97;;;7.80;99.90;;;;;;5057415;28;20488;-70
2023/01/30 06:08:41;;;;;;;28.33;5.07;;;7.70;99.90;;;;;;5070402;28;20021;-69
2023/01/30 06:11:11;;;;;;;26.20;4.82;;;7.70;99.90;;;;;;5068525;28;20055;-68
2023/01/30 06:13:37;;;;;;;25.55;4.40;;;7.70;99.90;;;;;;5071821;28;20046;-68
2023/01/30 06:16:04;;;;;;;17.40;3.38;;;7.70;99.90;;;;;;5073198;28;20029;-68
2023/01/30 06:18:29;;;;;;;30.95;5.05;;;7.70;99.90;;;;;;5067824;28;20151;-69
2023/01/30 06:20:55;;;;;;;31.40;4.97;;;7.70;99.90;;;;;;5053418;28;20121;-68
2023/01/30 06:23:22;;;;;;;29.85;4.20;;;7.70;99.90;;;;;;5049528;28;20457;-70
2023/01/30 06:25:49;;;;;;;26.95;4.15;;;7.70;99.90;;;;;;5040415;28;20028;-70
2023/01/30 06:28:17;;;;;;;28.35;5.72;;;7.70;99.90;;;;;;5033894;28;20033;-70
2023/01/30 06:30:43;;;;;;;21.00;3.50;;;7.60;99.90;;;;;;5033384;28;20478;-70
2023/01/30 06:33:09;;;;;;;30.70;5.50;;;7.60;99.90;;;;;;5041510;28;20056;-69
2023/01/30 06:35:38;;;;;;;26.98;3.78;;;7.60;99.90;;;;;;5053049;28;20024;-68
2023/01/30 06:38:04;;;;;;;28.42;5.00;;;7.60;99.90;;;;;;5041300;28;20047;-70
2023/01/30 06:40:30;;;;;;;26.05;4.50;;;7.60;99.90;;;;;;5043537;28;20070;-70
2023/01/30 06:42:56;;;;;;;29.77;4.15;;;7.60;99.90;;;;;;5046587;28;20040;-69
2023/01/30 06:45:21;;;;;;;23.83;4.05;;;7.60;99.90;;;;;;5051117;28;20041;-68
2023/01/30 06:47:48;;;;;;;21.88;3.75;;;7.50;99.90;;;;;;5051883;28;20021;-70
2023/01/30 06:50:14;;;;;;;19.45;3.38;;;7.50;99.90;;;;;;5051620;28;20029;-69
2023/01/30 06:52:41;;;;;;;23.02;3.58;;;7.50;99.90;;;;;;5048278;28;20029;-69
2023/01/30 06:55:08;;;;;;;21.33;3.55;;;7.60;99.90;;;;;;5052012;28;20048;-69
2023/01/30 06:57:33;;;;;;;26.63;3.80;;;7.50;99.90;;;;;;5050713;28;20382;-69
2023/01/30 06:59:59;;;;;;;19.20;3.00;;;7.60;99.90;;;;;;5051338;28;20074;-70
2023/01/30 07:02:29;;;;;;;23.48;3.28;;;7.50;99.90;;;;;;5039290;28;20034;-70
2023/01/30 07:04:55;;;;;;;23.85;3.92;;;7.50;99.90;;;;;;5042386;28;20067;-70
2023/01/30 07:07:20;;;;;;;25.95;4.22;;;7.50;99.90;;;;;;5050849;28;20112;-68
2023/01/30 07:09:46;;;;;;;19.35;3.67;;;7.50;99.90;;;;;;5051363;28;20358;-69
2023/01/30 07:12:11;;;;;;;22.77;4.53;;;7.50;99.90;;;;;;5051040;28;20025;-68
2023/01/30 07:14:37;;;;;;;25.90;4.07;;;7.50;99.90;;;;;;5050923;28;20496;-70
2023/01/30 07:17:02;;;;;;;20.17;3.22;;;7.50;99.90;;;;;;5050194;28;20130;-70
2023/01/30 07:19:28;;;;;;;23.25;3.72;;;7.60;99.90;;;;;;5044802;28;20095;-69
2023/01/30 07:21:53;;;;;;;15.90;2.92;;;7.60;99.90;;;;;;5034083;28;20492;-70
2023/01/30 07:24:19;;;;;;;22.50;3.30;;;7.60;99.90;;;;;;5046578;28;20475;-69
2023/01/30 07:26:47;;;;;;;30.55;4.47;;;7.70;99.90;;;;;;5041440;28;20164;-70
2023/01/30 07:29:12;;;;;;;26.73;3.63;;;7.80;99.90;;;;;;5038101;28;20025;-69
2023/01/30 07:31:38;;;;;;;21.42;3.85;;;7.80;99.90;;;;;;5051105;28;20059;-68
2023/01/30 07:34:03;;;;;;;22.27;3.53;;;7.90;99.90;;;;;;5045089;28;20036;-70
2023/01/30 07:36:32;;;;;;;20.98;3.72;;;7.90;99.90;;;;;;5035214;28;20026;-70
2023/01/30 07:38:58;;;;;;;28.20;4.25;;;7.90;99.90;;;;;;5045670;28;20033;-69
2023/01/30 07:41:23;;;;;;;21.92;3.38;;;7.90;99.90;;;;;;5050428;28;20028;-70
2023/01/30 07:43:49;;;;;;;19.90;3.08;;;7.90;99.90;;;;;;5045923;28;20654;-68
2023/01/30 07:46:15;;;;;;;26.20;4.43;;;7.90;99.90;;;;;;5037681;28;20543;-68
2023/01/30 07:48:43;;;;;;;19.42;3.17;;;7.80;99.90;;;;;;5042165;28;20036;-70
2023/01/30 07:51:09;;;;;;;23.45;3.05;;;7.90;99.90;;;;;;5050370;28;20057;-70
2023/01/30 07:53:34;;;;;;;21.20;4.07;;;7.90;99.90;;;;;;5047145;28;20546;-70
2023/01/30 07:56:09;;;;;;;24.52;4.13;;;7.90;99.90;;;;;;5039039;28;20044;-71
2023/01/30 07:58:35;;;;;;;28.30;4.25;;;8.00;99.90;;;;;;5047327;28;20044;-70
2023/01/30 08:01:01;;;;;;;23.42;3.35;;;8.00;99.90;;;;;;5035451;28;20381;-69
2023/01/30 08:03:27;;;;;;;20.35;3.38;;;8.10;99.90;;;;;;5047702;28;20040;-70
2023/01/30 08:05:53;;;;;;;20.05;4.03;;;8.10;99.90;;;;;;5040397;28;20021;-69
2023/01/30 08:08:19;;;;;;;19.73;3.47;;;8.10;99.90;;;;;;5044972;28;20534;-70
2023/01/30 08:10:47;;;;;;;19.77;3.33;;;8.10;99.90;;;;;;5038643;28;20096;-69
2023/01/30 08:13:13;;;;;;;24.20;4.60;;;8.10;99.90;;;;;;5047283;28;20029;-70
2023/01/30 08:15:39;;;;;;;27.55;3.78;;;8.10;99.90;;;;;;5050220;28;20429;-69
2023/01/30 08:18:06;;;;;;;20.88;4.20;;;8.10;99.90;;;;;;5039334;28;20490;-70
2023/01/30 08:20:32;;;;;;;24.48;3.70;;;8.20;99.90;;;;;;5045835;28;20033;-71
2023/01/30 08:22:58;;;;;;;30.23;4.00;;;8.30;99.90;;;;;;5039057;28;20083;-69
2023/01/30 08:25:24;;;;;;;24.23;3.67;;;8.40;99.90;;;;;;5045030;28;20116;-68
2023/01/30 08:27:50;;;;;;;14.57;2.75;;;8.50;99.90;;;;;;5042057;28;20112;-69
2023/01/30 08:30:17;;;;;;;21.42;3.10;;;8.50;99.90;;;;;;5047603;28;20071;-68
2023/01/30 08:32:43;;;;;;;20.60;4.45;;;8.60;99.90;;;;;;5052148;28;20071;-69
2023/01/30 08:35:09;;;;;;;22.00;3.90;;;8.60;99.90;;;;;;5046923;28;20373;-69
2023/01/30 08:37:34;;;;;;;24.58;3.53;;;8.70;99.90;;;;;;5047710;28;20056;-70
2023/01/30 08:40:00;;;;;;;19.15;4.30;;;8.70;99.90;;;;;;5042192;28;20650;-69
2023/01/30 08:42:26;;;;;;;21.35;3.92;;;8.80;99.90;;;;;;5048647;28;20028;-69
2023/01/30 08:44:51;;;;;;;17.17;2.85;;;8.80;99.90;;;;;;5053079;28;20033;-68
2023/01/30 08:47:17;;;;;;;24.58;4.03;;;8.80;99.90;;;;;;5053709;28;20061;-68
2023/01/30 08:49:45;;;;;;;23.02;4.75;;;8.90;99.90;;;;;;5049484;28;20106;-69
2023/01/30 08:52:11;;;;;;;24.58;4.47;;;8.90;99.90;;;;;;5039071;28;20036;-69
2023/01/30 08:54:37;;;;;;;24.83;3.15;;;9.00;99.90;;;;;;5051135;28;20041;-71
2023/01/30 08:57:03;;;;;;;21.83;4.18;;;9.00;99.90;;;;;;5038754;28;20098;-71
2023/01/30 08:59:28;;;;;;;15.98;2.88;;;9.00;99.90;;;;;;5045506;28;20041;-70
2023/01/30 09:01:54;;;;;;;22.08;3.33;;;9.00;99.90;;;;;;5036724;28;20095;-70
2023/01/30 09:04:19;;;;;;;18.95;3.88;;;9.10;99.90;;;;;;5047409;28;20454;-68
2023/01/30 09:06:45;;;;;;;17.67;4.30;;;9.10;99.90;;;;;;5044381;28;20476;-70
2023/01/30 09:09:11;;;;;;;25.33;3.55;;;9.10;99.90;;;;;;5037912;28;20021;-69
2023/01/30 09:11:36;;;;;;;20.88;3.78;;;9.20;99.90;;;;;;5044992;28;20028;-70
2023/01/30 09:14:02;;;;;;;21.30;3.33;;;9.20;99.90;;;;;;5042043;28;20044;-70
2023/01/30 09:16:27;;;;;;;16.65;2.63;;;9.20;99.90;;;;;;5049972;28;20044;-68
2023/01/30 09:18:53;;;;;;;16.10;3.10;;;9.20;99.90;;;;;;5038581;28;20062;-70
2023/01/30 09:21:20;;;;;;;16.85;3.97;;;9.30;99.90;;;;;;5034787;28;20072;-68
2023/01/30 09:23:46;;;;;;;17.02;2.53;;;9.30;99.90;;;;;;5044190;28;20024;-70
2023/01/30 09:26:11;;;;;;;22.58;3.28;;;9.30;99.90;;;;;;5040383;28;20536;-69
2023/01/30 09:28:37;;;;;;;13.27;3.35;;;9.40;99.90;;;;;;5049641;28;20029;-69
2023/01/30 09:31:03;;;;;;;15.18;2.58;;;9.40;99.90;;;;;;5034251;28;20079;-68
2023/01/30 09:33:29;;;;;;;21.95;3.95;;;9.50;99.90;;;;;;5039889;28;20029;-69
2023/01/30 09:35:55;;;;;;;25.25;3.45;;;9.50;99.90;;;;;;5050517;28;20033;-69
2023/01/30 09:38:20;;;;;;;21.77;3.30;;;9.50;99.90;;;;;;5041632;28;20044;-69
2023/01/30 09:41:05;;;;;;;26.48;4.30;;;9.50;99.90;;;;;;5037089;28;20461;-70
2023/01/30 09:44:03;;;;;;;18.55;3.05;;;9.50;99.90;;;;;;5044404;28;20108;-68
2023/01/30 09:47:06;;;;;;;23.75;3.53;;;9.50;99.90;;;;;;5036824;28;20040;-70
2023/01/30 09:49:52;;;;;;;16.33;2.75;;;9.60;99.90;;;;;;5041241;28;20048;-70
2023/01/30 09:52:25;;;;;;;21.42;3.38;;;9.60;99.90;;;;;;5039161;28;20029;-69
2023/01/30 09:55:14;;;;;;;18.20;3.50;;;9.60;99.90;;;;;;5052253;28;20064;-68
2023/01/30 09:57:40;;;;;;;23.02;4.10;;;9.70;99.90;;;;;;5038584;28;20155;-70
2023/01/30 10:00:23;;;;;;;22.27;3.67;;;9.80;99.90;;;;;;5053089;28;20029;-70
2023/01/30 10:02:52;;;;;;;22.95;3.28;;;9.80;99.90;;;;;;5035915;28;20036;-68
2023/01/30 10:05:18;;;;;;;26.83;4.55;;;9.80;99.90;;;;;;5046511;28;20109;-69
2023/01/30 10:07:52;;;;;;;23.83;3.95;;;9.90;99.90;;;;;;5053200;28;20115;-69
2023/01/30 10:10:30;;;;;;;22.23;4.13;;;9.90;99.90;;;;;;5052367;28;20036;-69
2023/01/30 10:13:28;;;;;;;23.35;3.83;;;10.00;99.90;;;;;;5035721;28;20060;-68
2023/01/30 10:16:04;;;;;;;23.40;3.33;;;9.90;99.90;;;;;;5041108;28;20040;-68
2023/01/30 10:19:03;;;;;;;25.90;3.85;;;9.80;99.90;;;;;;5048057;28;20484;-69
2023/01/30 10:21:51;;;;;;;21.33;4.15;;;9.90;99.90;;;;;;5038485;28;20116;-67
2023/01/30 10:24:34;;;;;;;27.60;4.07;;;9.80;99.90;;;;;;5033955;28;20039;-69
2023/01/30 10:27:00;;;;;;;32.28;5.25;;;9.80;99.90;;;;;;5037057;28;20072;-68
2023/01/30 10:29:38;;;;;;;19.02;2.85;;;9.80;99.90;;;;;;5050964;28;20104;-69
2023/01/30 10:32:22;;;;;;;26.10;3.67;;;9.80;99.90;;;;;;5048572;28;20056;-68
2023/01/30 10:34:56;;;;;;;21.83;4.05;;;9.90;99.90;;;;;;5049421;28;20029;-68
2023/01/30 10:37:32;;;;;;;23.27;4.40;;;10.10;99.90;;;;;;5039970;28;20041;-68
2023/01/30 10:40:34;;;;;;;27.00;4.55;;;10.20;99.90;;;;;;5046238;28;20035;-67
2023/01/30 10:43:09;;;;;;;28.10;3.75;;;10.30;99.90;;;;;;5043783;28;20048;-67
2023/01/30 10:45:48;;;;;;;21.25;4.15;;;10.30;99.90;;;;;;5048408;28;20420;-69
2023/01/30 10:48:29;;;;;;;29.30;4.30;;;10.30;99.90;;;;;;5047204;28;20025;-69
2023/01/30 10:50:58;;;;;;;34.53;3.83;;;10.30;99.90;;;;;;5048305;28;20037;-68
2023/01/30 10:53:31;;;;;;;21.45;4.13;;;10.60;99.90;;;;;;5044611;28;20558;-69
2023/01/30 10:56:11;;;;;;;21.83;3.30;;;11.00;99.90;;;;;;5043511;28;20135;-69
2023/01/30 10:58:47;;;;;;;22.38;4.43;;;11.00;99.90;;;;;;5047706;28;20068;-69
2023/01/30 11:01:19;;;;;;;23.20;3.88;;;11.10;99.90;;;;;;5047110;28;20033;-69
2023/01/30 11:03:45;;;;;;;19.85;3.60;;;10.90;99.90;;;;;;5042041;28;20029;-69
2023/01/30 11:06:22;;;;;;;17.25;3.50;;;11.20;99.90;;;;;;5050898;28;20033;-68
2023/01/30 11:08:48;;;;;;;21.35;4.13;;;11.70;99.90;;;;;;5050630;28;20060;-69
2023/01/30 11:11:26;;;;;;;19.98;4.00;;;12.20;99.90;;;;;;5044343;28;20397;-69
2023/01/30 11:14:04;;;;;;;26.17;3.92;;;12.50;99.90;;;;;;5040645;28;20022;-69
2023/01/30 11:16:31;;;;;;;27.48;4.32;;;12.60;99.90;;;;;;5042157;28;20025;-68
2023/01/30 11:19:00;;;;;;;26.02;4.63;;;12.90;99.90;;;;;;5035598;28;20092;-68
2023/01/30 11:21:29;;;;;;;18.83;3.10;;;13.20;99.90;;;;;;5043543;28;20109;-69
2023/01/30 11:23:54;;;;;;;25.17;3.92;;;13.50;99.90;;;;;;5051962;28;20527;-68
2023/01/30 11:26:33;;;;;;;21.52;4.00;;;13.90;99.90;;;;;;5038345;28;20026;-69
2023/01/30 11:28:58;;;;;;;26.13;3.63;;;14.20;99.90;;;;;;5035714;28;20102;-68
2023/01/30 11:31:26;;;;;;;24.15;3.75;;;14.40;99.90;;;;;;5041661;28;20586;-69
2023/01/30 11:34:00;;;;;;;17.42;3.58;;;14.30;99.90;;;;;;5034627;28;20029;-68
2023/01/30 11:36:33;;;;;;;22.38;4.40;;;14.40;99.90;;;;;;5043598;28;20115;-68
2023/01/30 11:39:17;;;;;;;24.13;4.28;;;14.50;99.90;;;;;;5033620;28;20060;-69
2023/01/30 11:42:00;;;;;;;23.80;4.32;;;14.50;99.90;;;;;;5036057;28;20029;-69
2023/01/30 11:44:29;;;;;;;20.30;3.72;;;14.50;99.90;;;;;;5047743;28;20449;-69
2023/01/30 11:46:58;;;;;;;23.60;4.25;;;14.60;99.90;;;;;;5041524;28;20311;-68
2023/01/30 11:49:30;;;;;;;22.50;4.13;;;14.70;99.90;;;;;;5039411;28;20185;-69
2023/01/30 11:51:55;;;;;;;22.60;3.93;;;14.80;99.90;;;;;;5040437;28;20030;-68
2023/01/30 11:54:37;;;;;;;25.90;4.35;;;14.70;99.90;;;;;;5036445;28;20056;-69
2023/01/30 11:57:04;;;;;;;;;;;14.70;99.90;;;;;;5037733;28;20041;-69
2023/01/30 11:59:35;;;;;;;31.10;4.63;;;14.70;99.90;;;;;;5033778;28;19912;-69
2023/01/30 12:02:10;;;;;;;20.77;3.63;;;14.80;99.90;;;;;;5045071;28;20558;-69
2023/01/30 12:04:36;;;;;;;23.67;3.55;;;15.00;99.90;;;;;;5049636;28;20528;-68
2023/01/30 12:07:21;;;;;;;24.92;4.03;;;14.90;99.90;;;;;;5054355;28;20116;-69
2023/01/30 12:09:49;;;;;;;19.73;3.58;;;14.90;99.90;;;;;;5048123;28;20036;-70
2023/01/30 12:12:31;;;;;;;24.85;3.92;;;14.80;99.90;;;;;;5041375;28;20468;-69
2023/01/30 12:15:26;;;;;;;24.88;3.97;;;14.70;99.90;;;;;;5042503;28;20042;-69
2023/01/30 12:18:17;;;;;;;26.65;4.40;;;14.50;99.90;;;;;;5045762;28;20496;-70
2023/01/30 12:20:55;;;;;;;23.15;4.10;;;14.30;99.90;;;;;;5071642;28;20075;-69
2023/01/30 12:23:50;;;;;;;33.72;4.57;;;14.30;99.90;;;;;;5062103;28;20107;-68
2023/01/30 12:26:20;;;;;;;21.30;3.33;;;14.30;99.90;;;;;;5060758;28;20122;-69
2023/01/30 12:29:21;;;;;;;19.40;3.65;;;14.30;99.90;;;;;;5064728;28;20029;-69
2023/01/30 12:31:54;;;;;;;19.75;4.10;;;14.20;99.90;;;;;;5068179;28;20032;-69
2023/01/30 12:34:21;;;;;;;20.85;3.60;;;14.30;99.90;;;;;;5071490;28;20049;-69
2023/01/30 12:37:20;;;;;;;20.65;3.03;;;14.30;99.90;;;;;;5057709;28;20029;-69
2023/01/30 12:40:09;;;;;;;27.70;4.20;;;14.40;99.90;;;;;;5071217;28;20052;-68
2023/01/30 12:43:12;;;;;;;20.73;3.85;;;14.40;99.90;;;;;;5060045;28;20072;-68
2023/01/30 12:46:10;;;;;;;26.55;4.10;;;14.10;99.90;;;;;;5065277;28;20033;-69
2023/01/30 12:49:03;;;;;;;14.75;3.22;;;14.00;99.90;;;;;;5066054;28;20039;-69
2023/01/30 12:51:48;;;;;;;29.58;4.65;;;14.00;99.90;;;;;;5074411;28;20049;-68
2023/01/30 12:54:35;;;;;;;26.67;4.38;;;13.80;99.90;;;;;;5065650;28;20032;-69
2023/01/30 12:57:42;;;;;;;19.60;3.78;;;13.50;99.90;;;;;;5064062;28;20045;-68
2023/01/30 13:00:28;;;;;;;18.52;3.65;;;13.20;99.90;;;;;;5054035;28;20084;-68
2023/01/30 13:03:34;;;;;;;25.38;4.47;;;13.00;99.90;;;;;;5069529;28;20028;-68
2023/01/30 13:06:09;;;;;;;14.98;2.90;;;12.80;99.90;;;;;;5066910;28;20028;-69
2023/01/30 13:09:13;;;;;;;30.48;4.65;;;12.50;99.90;;;;;;5067056;28;20036;-69
2023/01/30 13:12:06;;;;;;;23.25;4.55;;;12.30;99.90;;;;;;5045756;28;20036;-69
2023/01/30 13:15:09;;;;;;;31.25;5.53;;;12.10;99.90;;;;;;5065039;28;20074;-68